createdAt,value
2022-12-12T06:30:49.144Z,31.52
2022-12-12T06:33:16.696Z,32.47
2022-12-12T06:35:43.857Z,41.65
2022-12-12T06:38:11.152Z,37.28
2022-12-12T06:40:41.068Z,27.73
2022-12-12T06:43:08.323Z,32.35
2022-12-12T06:45:35.530Z,41.45
2022-12-12T06:48:02.971Z,28.13
2022-12-12T06:50:31.768Z,29.63
2022-12-12T06:52:59.580Z,35.90
2022-12-12T06:55:27.003Z,38.38
2022-12-12T06:57:54.329Z,35.05
2022-12-12T07:00:21.569Z,30.50
2022-12-12T07:02:48.895Z,42.28
2022-12-12T07:05:16.490Z,45.53
2022-12-12T07:07:44.193Z,42.00
2022-12-12T07:10:11.486Z,46.10
2022-12-12T07:12:38.907Z,41.88
2022-12-12T07:15:06.529Z,38.50
2022-12-12T07:17:33.827Z,42.72
2022-12-12T07:20:01.295Z,41.40
2022-12-12T07:22:29.427Z,39.97
2022-12-12T07:24:56.672Z,46.50
2022-12-12T07:27:23.961Z,42.90
2022-12-12T07:29:51.145Z,37.20
2022-12-12T07:32:18.600Z,46.50
2022-12-12T07:34:45.956Z,36.35
2022-12-12T07:37:13.286Z,41.08
2022-12-12T07:39:40.501Z,45.00
2022-12-12T07:42:07.905Z,46.63
2022-12-12T07:44:35.159Z,47.53
2022-12-12T07:47:02.702Z,34.92
2022-12-12T07:49:30.542Z,37.78
2022-12-12T07:51:57.913Z,32.83
2022-12-12T07:54:25.243Z,33.88
2022-12-12T07:56:52.482Z,36.90
2022-12-12T07:59:19.848Z,30.42
2022-12-12T08:01:47.403Z,40.58
2022-12-12T08:04:14.604Z,32.05
2022-12-12T08:06:41.760Z,32.30
2022-12-12T08:09:09.165Z,36.17
2022-12-12T08:11:36.482Z,33.13
2022-12-12T08:14:11.175Z,29.90
2022-12-12T08:16:41.142Z,37.10
2022-12-12T08:19:08.860Z,37.28
2022-12-12T08:21:36.112Z,42.10
2022-12-12T08:24:03.567Z,36.88
2022-12-12T08:26:32.172Z,27.13
2022-12-12T08:29:00.041Z,37.58
2022-12-12T08:31:28.187Z,35.45
2022-12-12T08:33:56.389Z,33.42
2022-12-12T08:36:30.181Z,33.20
2022-12-12T08:38:59.392Z,37.78
2022-12-12T08:41:27.097Z,38.75
2022-12-12T08:43:54.334Z,36.45
2022-12-12T08:46:22.200Z,34.33
2022-12-12T08:48:49.569Z,34.25
2022-12-12T08:51:17.661Z,30.73
2022-12-12T08:53:46.956Z,36.15
2022-12-12T08:56:15.896Z,35.67
2022-12-12T08:58:43.818Z,42.33
2022-12-12T09:01:13.750Z,31.10
2022-12-12T09:03:41.390Z,31.88
2022-12-12T09:06:10.475Z,34.30
2022-12-12T09:08:38.910Z,30.85
2022-12-12T09:11:06.828Z,26.77
2022-12-12T09:13:34.905Z,29.52
2022-12-12T09:16:02.232Z,34.13
2022-12-12T09:18:29.713Z,28.98
2022-12-12T09:20:58.560Z,35.35
2022-12-12T09:23:27.110Z,33.50
2022-12-12T09:25:54.534Z,35.08
2022-12-12T09:28:24.070Z,33.78
2022-12-12T09:30:52.350Z,40.83
2022-12-12T09:33:19.928Z,37.92
2022-12-12T09:35:47.700Z,32.70
2022-12-12T09:38:15.350Z,35.53
2022-12-12T09:40:57.198Z,32.38
2022-12-12T09:43:29.851Z,37.33
2022-12-12T09:48:37.901Z,31.83
2022-12-12T09:51:05.297Z,27.15
2022-12-12T09:53:33.226Z,35.92
2022-12-12T09:56:15.794Z,35.85
2022-12-12T09:58:56.838Z,29.35
2022-12-12T10:01:55.224Z,38.70
2022-12-12T10:07:45.233Z,44.58
2022-12-12T10:10:23.017Z,45.85
2022-12-12T10:12:54.763Z,28.30
2022-12-12T10:15:33.784Z,41.00
2022-12-12T10:18:07.929Z,37.70
2022-12-12T10:20:46.890Z,36.97
2022-12-12T10:23:29.446Z,33.40
2022-12-12T10:26:05.235Z,36.60
2022-12-12T10:28:34.876Z,33.03
2022-12-12T10:31:42.260Z,38.05
2022-12-12T10:34:33.423Z,39.83
2022-12-12T10:37:28.421Z,37.10
2022-12-12T10:40:36.004Z,53.22
2022-12-12T10:43:30.148Z,36.28
2022-12-12T10:49:00.197Z,42.15
2022-12-12T10:51:29.557Z,34.78
2022-12-12T10:53:59.482Z,34.47
2022-12-12T10:56:30.783Z,31.23
2022-12-12T10:59:01.951Z,36.47
2022-12-12T11:04:27.452Z,34.25
2022-12-12T11:06:56.341Z,31.20
2022-12-12T11:09:28.560Z,31.98
2022-12-12T11:12:12.399Z,32.80
2022-12-12T11:14:48.742Z,29.30
2022-12-12T11:17:25.882Z,44.28
2022-12-12T11:19:56.954Z,34.60
2022-12-12T11:22:25.263Z,27.30
2022-12-12T11:24:53.465Z,29.08
2022-12-12T11:27:28.058Z,35.60
2022-12-12T11:30:00.676Z,38.33
2022-12-12T11:32:38.386Z,34.97
2022-12-12T11:35:22.079Z,33.95
2022-12-12T11:37:55.985Z,34.47
2022-12-12T11:40:27.951Z,35.97
2022-12-12T11:43:25.161Z,44.17
2022-12-12T11:51:36.768Z,30.20
2022-12-12T11:54:11.911Z,33.03
2022-12-12T11:57:02.303Z,27.90
2022-12-12T12:02:54.593Z,35.75
2022-12-12T12:05:53.991Z,36.33
2022-12-12T12:11:46.463Z,34.38
2022-12-12T12:14:29.001Z,36.42
2022-12-12T12:20:04.973Z,31.95
2022-12-12T12:22:50.370Z,34.17
2022-12-12T12:25:46.577Z,34.55
2022-12-12T12:28:42.832Z,39.17
2022-12-12T12:31:50.147Z,33.58
2022-12-12T12:34:40.937Z,31.35
2022-12-12T12:37:44.895Z,32.00
2022-12-12T12:40:40.799Z,29.92
2022-12-12T12:43:39.532Z,28.77
2022-12-12T12:46:18.334Z,30.67
2022-12-12T12:48:50.789Z,33.42
2022-12-12T12:51:27.354Z,41.00
2022-12-12T12:54:06.144Z,28.52
2022-12-12T12:56:43.583Z,33.55
2022-12-12T12:59:20.517Z,32.92
2022-12-12T13:01:52.381Z,46.05
2022-12-12T13:04:28.622Z,33.53
2022-12-12T13:07:21.964Z,32.28
2022-12-12T13:12:40.224Z,33.15
2022-12-12T13:15:35.256Z,29.90
2022-12-12T13:18:06.647Z,36.40
2022-12-12T13:20:39.120Z,32.88
2022-12-12T13:23:37.913Z,35.78
2022-12-12T13:26:30.191Z,31.80
2022-12-12T13:31:56.234Z,43.63
2022-12-12T13:34:27.219Z,40.38
2022-12-12T13:36:56.472Z,43.00
2022-12-12T13:39:32.909Z,44.72
2022-12-12T13:42:05.819Z,43.55
2022-12-12T13:44:47.231Z,36.65
2022-12-12T13:55:46.087Z,49.30
2022-12-12T13:58:33.182Z,49.03
2022-12-12T14:01:33.970Z,40.53
2022-12-12T14:04:03.112Z,36.50
2022-12-12T14:06:30.998Z,35.10
2022-12-12T14:08:59.154Z,41.65
2022-12-12T14:11:32.248Z,44.75
2022-12-12T14:14:07.841Z,40.95
2022-12-12T14:16:36.194Z,45.92
2022-12-12T14:19:07.682Z,38.58
2022-12-12T14:21:45.917Z,44.17
2022-12-12T14:24:35.938Z,40.60
2022-12-12T14:27:06.923Z,48.80
2022-12-12T14:29:40.500Z,40.17
2022-12-12T14:32:35.749Z,38.38
2022-12-12T14:35:42.889Z,44.72
2022-12-12T14:38:37.211Z,36.78
2022-12-12T14:41:11.565Z,37.00
2022-12-12T14:43:46.708Z,35.45
2022-12-12T14:46:41.262Z,33.03
2022-12-12T14:49:15.779Z,40.67
2022-12-12T14:51:45.470Z,43.20
2022-12-12T14:54:17.484Z,38.55
2022-12-12T14:56:52.708Z,40.08
2022-12-12T14:59:24.775Z,47.15
2022-12-12T15:01:57.420Z,56.75
2022-12-12T15:07:01.048Z,40.28
2022-12-12T15:09:33.134Z,41.58
2022-12-12T15:12:18.367Z,50.72
2022-12-12T15:17:32.042Z,41.20
2022-12-12T15:20:15.204Z,50.33
2022-12-12T15:23:01.072Z,43.10
2022-12-12T15:25:32.984Z,45.50
2022-12-12T15:28:01.883Z,65.32
2022-12-12T15:30:39.217Z,62.45
2022-12-12T15:33:14.313Z,46.63
2022-12-12T15:35:49.928Z,47.42
2022-12-12T15:38:17.504Z,44.13
2022-12-12T15:40:51.274Z,54.38
2022-12-12T15:43:24.147Z,46.83
2022-12-12T15:45:59.284Z,44.50
2022-12-12T15:48:27.170Z,41.83
2022-12-12T15:50:59.281Z,43.15
2022-12-12T15:53:31.434Z,51.00
2022-12-12T15:58:39.709Z,41.65
2022-12-12T16:06:34.799Z,57.95
2022-12-12T16:11:43.437Z,45.88
2022-12-12T16:14:40.099Z,54.65
2022-12-12T16:17:19.302Z,57.00
2022-12-12T16:19:57.372Z,60.03
2022-12-12T16:25:26.436Z,66.93
2022-12-12T16:28:17.940Z,50.95
2022-12-12T16:30:53.405Z,51.40
2022-12-12T16:33:38.134Z,51.25
2022-12-12T16:36:09.656Z,47.33
2022-12-12T16:38:37.171Z,42.75
2022-12-12T16:41:08.122Z,40.85
2022-12-12T16:43:35.409Z,47.65
2022-12-12T16:46:02.508Z,52.03
2022-12-12T16:48:35.210Z,46.53
2022-12-12T16:53:31.342Z,49.22
2022-12-12T16:55:58.661Z,49.28
2022-12-12T16:58:25.824Z,56.22
